createdAt,value
2022-09-26T00:01:47.575Z,22.12
2022-09-26T00:03:53.905Z,22.13
2022-09-26T00:06:03.008Z,22.12
2022-09-26T00:08:05.723Z,22.12
2022-09-26T00:10:07.987Z,22.10
2022-09-26T00:12:09.751Z,22.12
2022-09-26T00:14:19.078Z,22.12
2022-09-26T00:16:20.985Z,22.13
2022-09-26T00:18:22.970Z,22.11
2022-09-26T00:20:24.657Z,22.13
2022-09-26T00:22:26.324Z,22.11
2022-09-26T00:24:28.037Z,22.10
2022-09-26T00:26:30.800Z,22.11
2022-09-26T00:28:32.585Z,22.12
2022-09-26T00:30:36.904Z,22.12
2022-09-26T00:32:38.421Z,22.13
2022-09-26T00:34:40.081Z,22.11
2022-09-26T00:36:41.760Z,22.08
2022-09-26T00:38:43.818Z,22.08
2022-09-26T00:40:45.754Z,22.11
2022-09-26T00:42:47.581Z,22.09
2022-09-26T00:44:50.800Z,22.09
2022-09-26T00:46:52.506Z,22.06
2022-09-26T00:49:31.560Z,22.06
2022-09-26T00:51:35.290Z,22.06
2022-09-26T00:53:40.301Z,22.03
2022-09-26T00:55:48.370Z,22.04
2022-09-26T00:57:56.736Z,22.05
2022-09-26T01:00:02.157Z,22.05
2022-09-26T01:02:04.082Z,22.03
2022-09-26T01:04:05.904Z,22.04
2022-09-26T01:06:07.680Z,22.04
2022-09-26T01:08:09.375Z,22.02
2022-09-26T01:10:11.216Z,22.03
2022-09-26T01:12:12.893Z,22.07
2022-09-26T01:14:14.676Z,22.07
2022-09-26T01:16:16.416Z,22.09
2022-09-26T01:18:18.197Z,22.09
2022-09-26T01:20:29.009Z,22.06
2022-09-26T01:22:37.541Z,22.05
2022-09-26T01:24:50.691Z,22.05
2022-09-26T01:27:01.048Z,22.08
2022-09-26T01:29:37.153Z,22.04
2022-09-26T01:31:42.438Z,22.05
2022-09-26T01:34:04.200Z,22.06
2022-09-26T01:36:43.985Z,22.07
2022-09-26T01:38:48.632Z,22.05
2022-09-26T01:41:24.300Z,22.06
2022-09-26T01:43:26.725Z,22.06
2022-09-26T01:45:33.962Z,22.04
2022-09-26T01:47:41.707Z,22.06
2022-09-26T01:49:50.936Z,22.07
2022-09-26T01:51:57.670Z,22.03
2022-09-26T01:54:06.489Z,22.04
2022-09-26T01:56:14.199Z,22.04
2022-09-26T01:58:31.790Z,22.04
2022-09-26T02:00:34.512Z,22.03
2022-09-26T02:02:38.391Z,22.03
2022-09-26T02:04:41.868Z,22.02
2022-09-26T02:06:57.035Z,22.03
2022-09-26T02:09:01.616Z,22.06
2022-09-26T02:11:14.847Z,22.04
2022-09-26T02:13:21.857Z,22.03
2022-09-26T02:15:24.016Z,22.04
2022-09-26T02:17:27.004Z,22.04
2022-09-26T02:19:30.204Z,22.03
2022-09-26T02:21:31.978Z,22.04
2022-09-26T02:23:33.644Z,22.02
2022-09-26T02:25:35.369Z,22.03
2022-09-26T02:27:37.138Z,22.03
2022-09-26T02:29:38.839Z,22.02
2022-09-26T02:31:46.199Z,22.04
2022-09-26T02:33:49.517Z,22.02
2022-09-26T02:35:51.285Z,22.00
2022-09-26T02:37:53.058Z,21.99
2022-09-26T02:39:54.761Z,21.99
2022-09-26T02:42:02.506Z,22.00
2022-09-26T02:44:12.239Z,22.01
2022-09-26T02:46:51.199Z,22.03
2022-09-26T02:49:04.970Z,22.05
2022-09-26T02:51:35.902Z,22.04
2022-09-26T02:53:49.133Z,22.04
2022-09-26T02:56:22.753Z,22.03
2022-09-26T02:58:29.213Z,22.03
2022-09-26T03:01:12.001Z,22.03
2022-09-26T03:03:36.033Z,22.05
2022-09-26T03:05:38.279Z,22.03
2022-09-26T03:07:52.902Z,22.03
2022-09-26T03:09:54.600Z,22.06
2022-09-26T03:11:57.070Z,22.03
2022-09-26T03:13:58.819Z,22.02
2022-09-26T03:16:00.671Z,22.04
2022-09-26T03:18:02.383Z,22.04
2022-09-26T03:20:12.742Z,22.02
2022-09-26T03:22:15.511Z,22.01
2022-09-26T03:24:17.151Z,21.98
2022-09-26T03:26:20.653Z,21.98
2022-09-26T03:28:22.285Z,21.98
2022-09-26T03:30:24.093Z,21.98
2022-09-26T03:32:25.800Z,21.98
2022-09-26T03:34:27.719Z,22.00
2022-09-26T03:36:29.474Z,21.98
2022-09-26T03:38:31.209Z,21.95
2022-09-26T03:40:32.966Z,21.91
2022-09-26T03:42:34.954Z,21.91
2022-09-26T03:44:36.802Z,21.91
2022-09-26T03:46:40.206Z,21.90
2022-09-26T03:48:42.145Z,21.95
2022-09-26T03:50:43.872Z,21.93
2022-09-26T03:52:45.586Z,21.95
2022-09-26T03:54:47.261Z,22.01
2022-09-26T03:56:48.996Z,21.99
2022-09-26T03:58:50.793Z,21.97
2022-09-26T04:00:52.577Z,21.92
2022-09-26T04:02:54.297Z,21.90
2022-09-26T04:04:56.009Z,21.88
2022-09-26T04:06:58.216Z,21.89
2022-09-26T04:08:59.922Z,21.91
2022-09-26T04:11:03.007Z,21.90
2022-09-26T04:13:04.996Z,21.90
2022-09-26T04:15:07.733Z,21.91
2022-09-26T04:17:10.264Z,21.99
2022-09-26T04:19:12.013Z,22.02
2022-09-26T04:21:14.031Z,22.08
2022-09-26T04:23:16.037Z,22.10
2022-09-26T04:25:17.710Z,22.04
2022-09-26T04:27:19.728Z,21.93
2022-09-26T04:29:21.624Z,21.87
2022-09-26T04:31:24.341Z,21.85
2022-09-26T04:33:26.154Z,21.67
2022-09-26T04:35:27.956Z,21.65
2022-09-26T04:37:29.675Z,21.41
2022-09-26T04:39:31.404Z,21.20
2022-09-26T04:41:33.071Z,21.45
2022-09-26T04:43:35.089Z,21.53
2022-09-26T04:45:36.926Z,21.55
2022-09-26T04:47:38.686Z,21.60
2022-09-26T04:49:40.397Z,21.63
2022-09-26T04:51:42.062Z,21.63
2022-09-26T04:53:43.965Z,21.61
2022-09-26T04:55:46.257Z,21.61
2022-09-26T04:57:50.990Z,21.60
2022-09-26T04:59:52.747Z,21.61
2022-09-26T05:01:54.484Z,21.60
2022-09-26T05:03:56.210Z,21.63
2022-09-26T05:05:58.200Z,21.61
2022-09-26T05:07:59.904Z,21.69
2022-09-26T05:10:01.665Z,21.66
2022-09-26T05:12:03.499Z,21.55
2022-09-26T05:14:05.197Z,21.54
2022-09-26T05:16:07.162Z,21.57
2022-09-26T05:18:08.889Z,21.62
2022-09-26T05:20:10.568Z,21.79
2022-09-26T05:22:12.313Z,21.85
2022-09-26T05:24:13.979Z,21.81
2022-09-26T05:26:17.563Z,21.73
2022-09-26T05:28:19.236Z,21.66
2022-09-26T05:30:20.930Z,21.65
2022-09-26T05:32:22.698Z,21.62
2022-09-26T05:34:24.477Z,21.63
2022-09-26T05:36:26.482Z,21.61
2022-09-26T05:38:28.190Z,21.61
2022-09-26T05:40:29.954Z,21.61
2022-09-26T05:42:31.783Z,21.59
2022-09-26T05:44:33.387Z,21.62
2022-09-26T05:46:35.137Z,21.60
2022-09-26T05:48:37.591Z,21.58
2022-09-26T05:50:43.358Z,21.57
2022-09-26T05:52:45.318Z,21.57
2022-09-26T05:54:46.951Z,21.59
2022-09-26T05:56:48.685Z,21.62
2022-09-26T05:58:50.386Z,21.61
2022-09-26T06:00:52.145Z,21.62
2022-09-26T06:02:57.291Z,21.62
2022-09-26T06:04:58.954Z,21.64
2022-09-26T06:07:00.597Z,21.61
2022-09-26T06:09:02.312Z,21.60
2022-09-26T06:11:09.278Z,21.57
2022-09-26T06:13:10.993Z,21.56
2022-09-26T06:15:12.839Z,21.57
2022-09-26T06:17:14.587Z,21.57
2022-09-26T06:19:20.596Z,21.56
2022-09-26T06:21:24.393Z,21.56
2022-09-26T06:23:25.998Z,21.54
2022-09-26T06:25:28.191Z,21.54
2022-09-26T06:27:29.816Z,21.52
2022-09-26T06:29:31.482Z,21.51
2022-09-26T06:31:33.281Z,21.51
2022-09-26T06:33:34.991Z,21.50
2022-09-26T06:35:36.630Z,21.50
2022-09-26T06:37:38.364Z,21.51
2022-09-26T06:39:40.035Z,21.50
2022-09-26T06:41:41.726Z,21.51
2022-09-26T06:43:46.420Z,21.50
2022-09-26T06:45:48.312Z,21.51
2022-09-26T06:47:50.035Z,21.50
2022-09-26T06:49:51.768Z,21.46
2022-09-26T06:51:53.458Z,21.39
2022-09-26T06:53:55.097Z,21.44
2022-09-26T06:55:58.446Z,21.44
2022-09-26T06:58:00.093Z,21.46
2022-09-26T07:00:01.945Z,21.46
2022-09-26T07:02:03.711Z,21.46
2022-09-26T07:04:05.502Z,21.45
2022-09-26T07:06:07.263Z,21.44
2022-09-26T07:08:08.906Z,21.44
2022-09-26T07:10:10.623Z,21.44
2022-09-26T07:12:14.953Z,21.45
2022-09-26T07:14:17.175Z,21.45
2022-09-26T07:16:18.913Z,21.44
2022-09-26T07:18:20.677Z,21.47
2022-09-26T07:20:22.379Z,21.55
2022-09-26T07:22:24.072Z,21.57
2022-09-26T07:24:25.743Z,21.57
2022-09-26T07:26:27.429Z,21.56
2022-09-26T07:28:29.084Z,21.55
2022-09-26T07:30:30.857Z,21.56
2022-09-26T07:32:32.547Z,21.54
2022-09-26T07:34:34.215Z,21.54
2022-09-26T07:36:35.857Z,21.51
2022-09-26T07:38:37.532Z,21.53
2022-09-26T07:40:39.387Z,21.56
2022-09-26T07:42:41.141Z,21.53
2022-09-26T07:47:05.474Z,21.53
2022-09-26T07:49:07.129Z,21.56
2022-09-26T07:51:09.462Z,21.56
2022-09-26T07:53:11.344Z,21.59
2022-09-26T07:55:17.734Z,21.59
2022-09-26T07:57:19.475Z,21.59
2022-09-26T07:59:21.371Z,21.56
2022-09-26T08:01:23.087Z,21.55
2022-09-26T08:03:24.860Z,21.56
2022-09-26T08:05:26.555Z,21.54
2022-09-26T08:07:28.284Z,21.52
2022-09-26T08:09:29.959Z,21.51
2022-09-26T08:11:31.647Z,21.47
2022-09-26T08:13:33.452Z,21.47
2022-09-26T08:15:35.125Z,21.49
2022-09-26T08:17:36.850Z,21.50
2022-09-26T08:19:38.663Z,21.49
2022-09-26T08:21:40.391Z,21.52
2022-09-26T08:23:42.100Z,21.51
2022-09-26T08:25:44.030Z,21.50
2022-09-26T08:27:45.736Z,21.48
2022-09-26T08:29:47.509Z,21.48
2022-09-26T08:31:49.464Z,21.48
2022-09-26T08:33:51.281Z,21.45
2022-09-26T08:35:52.947Z,21.46
2022-09-26T08:37:54.666Z,21.43
2022-09-26T08:39:56.362Z,21.47
2022-09-26T08:42:19.573Z,21.51
2022-09-26T08:44:27.197Z,21.47
2022-09-26T08:46:38.019Z,21.44
2022-09-26T08:49:00.900Z,21.44
2022-09-26T08:51:35.287Z,21.46
2022-09-26T08:53:51.770Z,21.45
2022-09-26T08:55:53.602Z,21.49
2022-09-26T08:58:05.822Z,21.52
2022-09-26T09:00:17.178Z,21.51
2022-09-26T09:02:23.810Z,21.46
2022-09-26T09:04:40.917Z,21.47
2022-09-26T09:06:42.576Z,21.49
2022-09-26T09:08:46.545Z,21.45
2022-09-26T09:11:06.383Z,21.47
2022-09-26T09:13:33.516Z,21.47
2022-09-26T09:15:43.796Z,21.46
2022-09-26T09:17:52.844Z,21.48
2022-09-26T09:20:14.159Z,21.48
2022-09-26T09:22:15.742Z,21.49
2022-09-26T09:24:35.690Z,21.47
2022-09-26T09:29:42.012Z,21.46
2022-09-26T09:31:43.851Z,21.47
2022-09-26T09:33:50.752Z,21.46
2022-09-26T09:36:04.780Z,21.46
2022-09-26T09:38:07.166Z,21.47
2022-09-26T09:40:22.541Z,21.48
2022-09-26T09:42:38.489Z,21.49
2022-09-26T09:45:05.658Z,21.49
2022-09-26T09:47:17.902Z,21.51
2022-09-26T09:49:23.564Z,21.52
2022-09-26T09:51:43.053Z,21.52
2022-09-26T09:54:01.929Z,21.49
2022-09-26T09:56:42.222Z,21.48
2022-09-26T09:58:59.257Z,21.44
2022-09-26T10:01:12.157Z,21.44
2022-09-26T10:03:29.124Z,21.47
2022-09-26T10:05:43.937Z,21.47
2022-09-26T10:07:45.422Z,21.48
2022-09-26T10:09:47.214Z,21.50
2022-09-26T10:11:52.453Z,21.50
2022-09-26T10:13:54.578Z,21.49
2022-09-26T10:16:00.205Z,21.45
2022-09-26T10:18:24.261Z,21.45
2022-09-26T10:20:34.497Z,21.44
2022-09-26T10:22:37.112Z,21.47
2022-09-26T10:24:39.237Z,21.45
2022-09-26T10:26:40.925Z,21.44
2022-09-26T10:28:46.925Z,21.43
2022-09-26T10:30:55.072Z,21.46
2022-09-26T10:33:00.404Z,21.44
2022-09-26T10:35:09.324Z,21.45
2022-09-26T10:37:24.798Z,21.45
2022-09-26T10:39:29.482Z,21.43
2022-09-26T10:41:31.134Z,21.42
2022-09-26T10:43:34.179Z,21.38
2022-09-26T10:45:35.887Z,21.38
2022-09-26T10:47:37.599Z,21.37
2022-09-26T10:49:57.630Z,21.39
2022-09-26T10:52:06.069Z,21.39
2022-09-26T10:54:17.159Z,21.39
2022-09-26T10:56:23.266Z,21.36
2022-09-26T10:58:26.548Z,21.35
2022-09-26T11:00:34.195Z,21.35
2022-09-26T11:02:35.889Z,21.37
2022-09-26T11:04:45.476Z,21.39
2022-09-26T11:06:47.216Z,21.41
2022-09-26T11:08:51.690Z,21.42
2022-09-26T11:10:53.600Z,21.42
2022-09-26T11:12:57.391Z,21.44
2022-09-26T11:15:00.490Z,21.42
2022-09-26T11:17:02.159Z,21.40
2022-09-26T11:19:25.522Z,21.39
2022-09-26T11:21:49.066Z,21.37
2022-09-26T11:23:56.528Z,21.38
2022-09-26T11:26:13.211Z,21.40
2022-09-26T11:28:17.644Z,21.46
2022-09-26T11:30:22.497Z,21.48
2022-09-26T11:32:30.609Z,21.49
2022-09-26T11:34:33.002Z,21.51
2022-09-26T11:36:56.099Z,21.49
2022-09-26T11:38:57.841Z,21.48
2022-09-26T11:41:11.569Z,21.47
2022-09-26T11:43:13.119Z,21.49
2022-09-26T11:45:53.124Z,21.49
2022-09-26T11:48:03.415Z,21.49
2022-09-26T11:50:13.958Z,21.50
2022-09-26T11:52:21.489Z,21.51
2022-09-26T11:54:39.080Z,21.49
2022-09-26T11:56:49.562Z,21.51
2022-09-26T11:59:29.714Z,21.50
2022-09-26T12:02:01.880Z,21.49
2022-09-26T12:04:41.048Z,21.50
2022-09-26T12:07:15.770Z,21.47
2022-09-26T12:10:05.658Z,21.48
2022-09-26T12:12:42.088Z,21.49
2022-09-26T12:15:05.045Z,21.49
2022-09-26T12:17:27.314Z,21.51
2022-09-26T12:19:39.420Z,21.50
2022-09-26T12:21:53.031Z,21.48
2022-09-26T12:23:56.025Z,21.46
2022-09-26T12:26:00.640Z,21.46
2022-09-26T12:28:35.327Z,21.46
2022-09-26T12:31:04.035Z,21.47
2022-09-26T12:33:14.650Z,21.48
2022-09-26T12:35:43.490Z,21.49
2022-09-26T12:37:54.308Z,21.48
2022-09-26T12:40:07.766Z,21.66
2022-09-26T12:42:33.909Z,21.88
2022-09-26T12:44:48.395Z,22.05
2022-09-26T12:47:08.309Z,22.10
2022-09-26T12:49:41.360Z,22.25
2022-09-26T12:51:49.461Z,22.47
2022-09-26T12:54:00.151Z,22.58
2022-09-26T12:56:08.526Z,23.10
2022-09-26T12:58:19.232Z,23.59
2022-09-26T13:00:21.299Z,24.01
2022-09-26T13:02:36.857Z,24.35
2022-09-26T13:04:47.682Z,24.34
2022-09-26T13:07:18.798Z,24.33
2022-09-26T13:09:52.649Z,24.49
2022-09-26T13:12:13.104Z,24.67
2022-09-26T13:14:20.673Z,24.53
2022-09-26T13:16:28.483Z,24.67
2022-09-26T13:18:35.912Z,24.78
2022-09-26T13:20:40.074Z,24.88
2022-09-26T13:22:46.810Z,24.96
2022-09-26T13:24:53.331Z,25.01
2022-09-26T13:27:00.280Z,24.94
2022-09-26T13:29:18.210Z,24.98
2022-09-26T13:31:32.340Z,24.98
2022-09-26T13:33:38.116Z,25.15
2022-09-26T13:35:40.352Z,25.27
2022-09-26T13:38:08.034Z,25.28
2022-09-26T13:40:45.225Z,25.04
2022-09-26T13:43:10.924Z,25.12
2022-09-26T13:45:23.468Z,25.17
2022-09-26T13:47:40.266Z,25.14
2022-09-26T13:50:02.169Z,25.53
2022-09-26T13:52:07.087Z,25.38
2022-09-26T13:54:08.712Z,25.55
2022-09-26T13:56:34.472Z,25.34
2022-09-26T13:58:39.281Z,25.35
2022-09-26T14:00:41.297Z,25.23
2022-09-26T14:02:43.026Z,25.26
2022-09-26T14:04:46.022Z,25.23
2022-09-26T14:07:09.373Z,25.30
2022-09-26T14:09:19.916Z,25.47
2022-09-26T14:11:25.790Z,25.24
2022-09-26T14:13:36.965Z,25.36
2022-09-26T14:15:47.915Z,25.24
2022-09-26T14:17:52.725Z,25.40
2022-09-26T14:19:54.494Z,25.18
2022-09-26T14:22:06.147Z,25.52
2022-09-26T14:24:30.278Z,25.69
2022-09-26T14:26:41.686Z,25.51
2022-09-26T14:28:54.130Z,25.53
2022-09-26T14:31:10.906Z,25.63
2022-09-26T14:33:12.708Z,25.78
2022-09-26T14:35:17.016Z,25.52
2022-09-26T14:37:18.503Z,25.58
2022-09-26T14:39:27.784Z,25.52
2022-09-26T14:41:31.698Z,25.49
2022-09-26T14:43:33.543Z,25.55
2022-09-26T14:45:48.885Z,25.75
2022-09-26T14:47:59.777Z,25.69
2022-09-26T14:50:06.067Z,25.66
2022-09-26T14:52:15.794Z,25.80
2022-09-26T14:54:21.712Z,25.72
2022-09-26T14:56:26.478Z,25.46
2022-09-26T14:58:46.670Z,25.23
2022-09-26T15:00:48.677Z,25.35
2022-09-26T15:02:50.875Z,25.02
2022-09-26T15:05:08.724Z,24.96
2022-09-26T15:07:16.324Z,25.10
2022-09-26T15:09:26.009Z,24.99
2022-09-26T15:11:36.356Z,24.97
2022-09-26T15:13:38.670Z,24.91
2022-09-26T15:15:48.673Z,24.93
2022-09-26T15:17:52.982Z,24.96
2022-09-26T15:19:55.202Z,24.79
2022-09-26T15:22:08.461Z,24.65
2022-09-26T15:24:22.788Z,24.51
2022-09-26T15:26:35.872Z,24.05
2022-09-26T15:28:37.794Z,24.04
2022-09-26T15:30:39.812Z,23.99
2022-09-26T15:32:41.586Z,23.93
2022-09-26T15:34:43.596Z,23.81
2022-09-26T15:36:47.254Z,23.88
2022-09-26T15:38:48.980Z,24.33
2022-09-26T15:41:02.878Z,23.96
2022-09-26T15:43:14.453Z,23.72
2022-09-26T15:45:28.015Z,23.73
2022-09-26T15:47:29.691Z,23.94
2022-09-26T15:49:31.804Z,23.87
2022-09-26T15:51:38.050Z,23.83
2022-09-26T15:53:51.255Z,23.81
2022-09-26T15:55:56.262Z,23.47
2022-09-26T15:57:59.174Z,23.33
2022-09-26T16:00:01.578Z,23.12
2022-09-26T16:02:03.567Z,23.67
2022-09-26T16:04:13.224Z,23.97
2022-09-26T16:06:36.566Z,24.23
2022-09-26T16:08:40.584Z,24.26
2022-09-26T16:10:43.171Z,24.35
2022-09-26T16:12:46.041Z,24.42
2022-09-26T16:15:08.765Z,24.56
2022-09-26T16:17:22.007Z,24.60
2022-09-26T16:19:51.121Z,24.62
2022-09-26T16:21:56.214Z,24.35
2022-09-26T16:24:00.296Z,23.89
2022-09-26T16:26:02.365Z,23.80
2022-09-26T16:28:07.534Z,23.75
2022-09-26T16:30:21.354Z,23.58
2022-09-26T16:32:23.321Z,23.55
2022-09-26T16:34:25.155Z,23.42
2022-09-26T16:36:31.197Z,23.36
2022-09-26T16:38:34.088Z,23.29
2022-09-26T16:40:36.304Z,23.17
2022-09-26T16:42:38.242Z,23.10
2022-09-26T16:44:40.867Z,23.17
2022-09-26T16:46:42.714Z,23.21
2022-09-26T16:48:50.747Z,23.23
2022-09-26T16:51:11.029Z,23.85
2022-09-26T16:53:12.984Z,24.10
2022-09-26T16:55:14.917Z,24.17
2022-09-26T16:57:37.648Z,24.33
2022-09-26T16:59:39.510Z,24.51
2022-09-26T17:01:41.415Z,24.53
2022-09-26T17:03:43.473Z,24.50
2022-09-26T17:05:45.493Z,24.63
2022-09-26T17:07:48.384Z,24.59
2022-09-26T17:09:50.216Z,24.59
2022-09-26T17:11:52.263Z,24.74
2022-09-26T17:13:56.168Z,24.46
2022-09-26T17:15:58.144Z,24.82
2022-09-26T17:18:08.837Z,24.68
2022-09-26T17:20:12.684Z,24.66
2022-09-26T17:22:16.098Z,24.65
2022-09-26T17:24:25.435Z,24.61
2022-09-26T17:26:27.138Z,24.63
2022-09-26T17:28:31.516Z,24.43
2022-09-26T17:30:33.287Z,24.59
2022-09-26T17:32:38.560Z,24.71
2022-09-26T17:34:40.684Z,24.68
2022-09-26T17:36:49.049Z,24.61
2022-09-26T17:38:51.354Z,24.70
2022-09-26T17:40:53.193Z,24.75
2022-09-26T17:42:56.111Z,24.70
2022-09-26T17:44:58.035Z,24.60
2022-09-26T17:46:59.877Z,24.59
2022-09-26T17:49:02.201Z,24.07
2022-09-26T17:51:09.343Z,23.75
2022-09-26T17:53:15.220Z,23.58
2022-09-26T17:55:21.441Z,23.43
2022-09-26T17:57:24.370Z,23.43
2022-09-26T17:59:28.481Z,23.34
2022-09-26T18:01:31.184Z,23.11
2022-09-26T18:03:36.356Z,23.20
2022-09-26T18:05:38.866Z,23.12
2022-09-26T18:07:40.930Z,23.13
2022-09-26T18:09:42.947Z,23.09
2022-09-26T18:11:48.924Z,22.99
2022-09-26T18:13:53.163Z,22.97
2022-09-26T18:15:56.026Z,22.88
2022-09-26T18:17:57.917Z,22.79
2022-09-26T18:19:59.721Z,22.62
2022-09-26T18:22:03.217Z,22.54
2022-09-26T18:24:05.779Z,22.51
2022-09-26T18:26:08.747Z,22.47
2022-09-26T18:28:13.184Z,22.38
2022-09-26T18:30:15.092Z,22.34
2022-09-26T18:32:27.523Z,22.31
2022-09-26T18:34:29.189Z,22.31
2022-09-26T18:36:34.221Z,22.30
2022-09-26T18:38:35.921Z,22.30
2022-09-26T18:40:40.512Z,22.26
2022-09-26T18:42:42.640Z,22.26
2022-09-26T18:44:44.325Z,22.22
2022-09-26T18:46:46.559Z,22.20
2022-09-26T18:48:48.809Z,22.19
2022-09-26T18:50:50.608Z,22.19
2022-09-26T18:52:55.674Z,22.14
2022-09-26T18:54:57.590Z,22.15
2022-09-26T18:56:59.364Z,22.14
2022-09-26T18:59:01.259Z,22.12
2022-09-26T19:01:04.306Z,22.11
2022-09-26T19:03:06.367Z,22.10
2022-09-26T19:05:10.687Z,22.11
2022-09-26T19:07:14.258Z,22.09
2022-09-26T19:09:20.521Z,22.06
2022-09-26T19:11:23.452Z,22.10
2022-09-26T19:13:27.536Z,22.08
2022-09-26T19:15:29.526Z,22.08
2022-09-26T19:17:31.354Z,22.07
2022-09-26T19:19:33.128Z,22.08
2022-09-26T19:21:38.014Z,22.07
2022-09-26T19:23:39.848Z,22.05
2022-09-26T19:25:41.666Z,22.04
2022-09-26T19:27:49.904Z,22.02
2022-09-26T19:30:11.973Z,22.02
2022-09-26T19:32:21.863Z,22.03
2022-09-26T19:34:23.702Z,22.04
2022-09-26T19:36:25.558Z,22.04
2022-09-26T19:38:27.465Z,22.03
2022-09-26T19:40:29.401Z,22.03
2022-09-26T19:42:31.263Z,22.03
2022-09-26T19:44:33.054Z,22.05
2022-09-26T19:46:35.111Z,22.06
2022-09-26T19:48:38.978Z,22.08
2022-09-26T19:50:40.945Z,22.08
2022-09-26T19:52:42.712Z,22.05
2022-09-26T19:54:44.709Z,22.08
2022-09-26T19:56:46.572Z,22.05
2022-09-26T19:58:48.308Z,22.03
2022-09-26T20:00:52.405Z,22.04
2022-09-26T20:02:54.222Z,22.03
2022-09-26T20:04:55.991Z,22.05
2022-09-26T20:06:57.685Z,22.05
2022-09-26T20:09:01.792Z,22.09
2022-09-26T20:11:03.570Z,22.06
2022-09-26T20:13:05.281Z,22.06
2022-09-26T20:15:07.507Z,22.05
2022-09-26T20:17:27.133Z,22.06
2022-09-26T20:19:35.672Z,22.04
2022-09-26T20:21:37.443Z,22.05
2022-09-26T20:23:39.168Z,22.05
2022-09-26T20:25:40.936Z,22.08
2022-09-26T20:27:42.648Z,22.08
2022-09-26T20:29:45.059Z,22.06
2022-09-26T20:31:46.769Z,22.05
2022-09-26T20:33:49.643Z,22.08
2022-09-26T20:36:02.657Z,22.08
2022-09-26T20:38:06.886Z,22.09
2022-09-26T20:40:19.686Z,22.08
2022-09-26T20:42:21.531Z,22.06
2022-09-26T20:44:27.931Z,22.05
2022-09-26T20:46:37.151Z,22.08
2022-09-26T20:48:40.140Z,22.05
2022-09-26T20:50:41.868Z,22.03
2022-09-26T20:52:43.644Z,22.05
2022-09-26T20:54:45.345Z,22.03
2022-09-26T20:56:47.098Z,22.02
2022-09-26T20:58:48.783Z,22.06
2022-09-26T21:00:50.471Z,22.06
2022-09-26T21:02:52.531Z,22.09
2022-09-26T21:04:54.501Z,22.08
2022-09-26T21:06:56.234Z,22.05
2022-09-26T21:08:57.942Z,22.08
2022-09-26T21:10:59.609Z,22.08
2022-09-26T21:13:01.531Z,22.09
2022-09-26T21:15:03.400Z,22.08
2022-09-26T21:17:05.196Z,22.08
2022-09-26T21:19:06.929Z,22.08
2022-09-26T21:21:12.003Z,22.06
2022-09-26T21:23:13.764Z,22.06
2022-09-26T21:25:19.567Z,22.10
2022-09-26T21:27:21.407Z,22.12
2022-09-26T21:29:23.233Z,22.11
2022-09-26T21:31:35.282Z,22.10
2022-09-26T21:33:37.737Z,22.11
2022-09-26T21:35:39.417Z,22.10
2022-09-26T21:37:42.105Z,22.09
2022-09-26T21:39:43.845Z,22.11
2022-09-26T21:41:52.869Z,22.12
2022-09-26T21:44:01.392Z,22.12
2022-09-26T21:46:03.133Z,22.11
2022-09-26T21:48:04.870Z,22.11
2022-09-26T21:50:07.299Z,22.12
2022-09-26T21:52:19.788Z,22.10
2022-09-26T21:54:23.675Z,22.10
2022-09-26T21:56:28.064Z,22.11
2022-09-26T21:58:30.636Z,22.10
2022-09-26T22:00:32.318Z,22.11
2022-09-26T22:02:34.123Z,22.10
2022-09-26T22:04:35.865Z,22.12
2022-09-26T22:06:37.681Z,22.11
2022-09-26T22:08:39.672Z,22.11
2022-09-26T22:10:41.371Z,22.10
2022-09-26T22:12:43.277Z,22.12
2022-09-26T22:14:45.003Z,22.12
2022-09-26T22:16:46.821Z,22.14
2022-09-26T22:18:48.623Z,22.11
2022-09-26T22:20:56.081Z,22.10
2022-09-26T22:22:57.805Z,22.09
2022-09-26T22:24:59.530Z,22.09
2022-09-26T22:27:01.327Z,22.09
2022-09-26T22:29:03.046Z,22.09
2022-09-26T22:31:04.970Z,22.10
2022-09-26T22:33:06.800Z,22.11
2022-09-26T22:35:08.678Z,22.08
2022-09-26T22:37:10.468Z,22.06
2022-09-26T22:39:12.214Z,22.06
2022-09-26T22:41:13.912Z,22.04
2022-09-26T22:43:15.646Z,22.04
2022-09-26T22:45:17.618Z,22.05
2022-09-26T22:47:19.361Z,22.03
2022-09-26T22:49:21.118Z,22.05
2022-09-26T22:51:22.801Z,22.05
2022-09-26T22:53:24.518Z,22.05
2022-09-26T22:55:26.300Z,22.04
2022-09-26T22:57:28.019Z,22.04
2022-09-26T22:59:29.795Z,22.08
2022-09-26T23:01:31.608Z,22.08
2022-09-26T23:03:33.792Z,22.10
2022-09-26T23:05:35.488Z,22.08
2022-09-26T23:07:37.226Z,22.11
2022-09-26T23:09:38.972Z,22.08
2022-09-26T23:11:40.670Z,22.03
2022-09-26T23:13:42.434Z,22.00
2022-09-26T23:15:44.114Z,22.02
2022-09-26T23:17:46.538Z,22.04
2022-09-26T23:19:48.317Z,22.03
2022-09-26T23:21:50.117Z,22.05
2022-09-26T23:23:53.406Z,22.05
2022-09-26T23:25:55.062Z,22.04
2022-09-26T23:27:56.850Z,21.99
2022-09-26T23:29:58.528Z,22.01
2022-09-26T23:32:00.367Z,21.99
2022-09-26T23:34:02.118Z,22.01
2022-09-26T23:36:04.062Z,22.01
2022-09-26T23:38:05.818Z,22.01
2022-09-26T23:40:08.228Z,22.04
2022-09-26T23:42:09.950Z,22.02
2022-09-26T23:44:11.687Z,22.03
2022-09-26T23:46:13.611Z,22.03
2022-09-26T23:48:15.515Z,22.05
2022-09-26T23:50:17.239Z,22.03
2022-09-26T23:52:18.992Z,22.03
2022-09-26T23:54:20.703Z,22.03
2022-09-26T23:56:22.411Z,22.02
2022-09-26T23:58:24.108Z,22.04
